Time,TemperatureF,DewpointF,PressureIn,WindDirection,WindDirectionDegrees,WindSpeedMPH,WindSpeedGustMPH,Humidity,HourlyPrecipIn,Conditions,Clouds,dailyrainin,SoftwareType,DateUTC
2013-01-14 00:00:00,60.5,56.0,30.15,SE,135,0.0,0.0,85,0.00,,,0.00,WUHU216HW,2013-01-14 05:00:00,
2013-01-14 00:01:00,60.5,56.0,30.15,SE,135,0.0,0.0,85,0.00,,,0.00,WUHU216HW,2013-01-14 05:01:00,
2013-01-14 00:03:00,60.3,55.8,30.15,SE,135,0.0,0.0,85,0.00,,,0.00,WUHU216HW,2013-01-14 05:03:00,
2013-01-14 00:08:00,60.3,55.8,30.15,SE,135,0.0,0.0,85,0.00,,,0.00,WUHU216HW,2013-01-14 05:08:00,
2013-01-14 00:13:00,60.3,55.8,30.15,SE,135,0.0,0.0,85,0.00,,,0.00,WUHU216HW,2013-01-14 05:13:00,
2013-01-14 00:18:00,60.3,56.2,30.15,SE,135,0.0,0.0,86,0.00,,,0.00,WUHU216HW,2013-01-14 05:18:00,
2013-01-14 00:23:00,60.3,56.2,30.15,SE,135,0.0,0.0,86,0.00,,,0.00,WUHU216HW,2013-01-14 05:23:00,
2013-01-14 00:28:00,60.1,56.0,30.16,SE,135,0.0,0.0,86,0.00,,,0.00,WUHU216HW,2013-01-14 05:28:00,
2013-01-14 00:33:00,60.1,56.0,30.16,SE,135,0.0,0.0,86,0.00,,,0.00,WUHU216HW,2013-01-14 05:33:00,
2013-01-14 00:38:00,60.3,56.2,30.16,SE,135,0.0,0.0,86,0.00,,,0.00,WUHU216HW,2013-01-14 05:38:00,
2013-01-14 00:43:00,60.3,56.2,30.16,SE,135,0.0,0.0,86,0.00,,,0.00,WUHU216HW,2013-01-14 05:43:00,
2013-01-14 00:48:00,60.3,56.2,30.16,SE,135,0.0,0.0,86,0.00,,,0.00,WUHU216HW,2013-01-14 05:48:00,
2013-01-14 00:53:00,60.3,56.2,30.16,SE,135,0.0,0.0,86,0.00,,,0.00,WUHU216HW,2013-01-14 05:53:00,
2013-01-14 00:58:00,60.5,56.4,30.16,SE,135,0.0,0.0,86,0.00,,,0.00,WUHU216HW,2013-01-14 05:58:00,
2013-01-14 01:03:00,60.5,56.4,30.16,SE,135,0.0,0.0,86,0.00,,,0.00,WUHU216HW,2013-01-14 06:03:00,
2013-01-14 01:08:00,60.5,56.4,30.16,SE,135,0.0,0.0,86,0.00,,,0.00,WUHU216HW,2013-01-14 06:08:00,
2013-01-14 01:13:00,60.5,56.4,30.16,SE,135,0.0,0.0,86,0.00,,,0.00,WUHU216HW,2013-01-14 06:13:00,
2013-01-14 01:18:00,60.7,56.5,30.16,SE,135,0.0,0.0,86,0.00,,,0.00,WUHU216HW,2013-01-14 06:18:00,
2013-01-14 01:23:00,60.7,56.5,30.16,SE,135,0.0,0.0,86,0.00,,,0.00,WUHU216HW,2013-01-14 06:23:00,
2013-01-14 01:28:00,60.8,56.7,30.16,SE,135,0.0,0.0,86,0.00,,,0.00,WUHU216HW,2013-01-14 06:28:00,
2013-01-14 01:33:00,60.7,56.5,30.16,SE,135,0.0,0.0,86,0.00,,,0.00,WUHU216HW,2013-01-14 06:33:00,
2013-01-14 01:38:00,60.7,56.5,30.16,SE,135,0.0,0.0,86,0.00,,,0.00,WUHU216HW,2013-01-14 06:38:00,
2013-01-14 01:43:00,60.7,56.5,30.16,SE,135,0.0,0.0,86,0.00,,,0.00,WUHU216HW,2013-01-14 06:43:00,
2013-01-14 01:48:00,60.7,56.5,30.16,SE,135,0.0,0.0,86,0.00,,,0.00,WUHU216HW,2013-01-14 06:48:00,
2013-01-14 01:53:00,60.5,56.4,30.16,SE,135,0.0,0.0,86,0.00,,,0.00,WUHU216HW,2013-01-14 06:53:00,
2013-01-14 01:58:00,60.5,56.4,30.16,SE,135,0.0,0.0,86,0.00,,,0.00,WUHU216HW,2013-01-14 06:58:00,
2013-01-14 02:03:00,60.5,56.4,30.17,SE,135,0.0,0.0,86,0.00,,,0.00,WUHU216HW,2013-01-14 07:03:00,
2013-01-14 02:08:00,60.5,56.4,30.17,SE,135,0.0,0.0,86,0.00,,,0.00,WUHU216HW,2013-01-14 07:08:00,
2013-01-14 02:13:00,60.5,56.4,30.17,SE,135,0.0,0.0,86,0.00,,,0.00,WUHU216HW,2013-01-14 07:13:00,
2013-01-14 02:18:00,60.7,56.5,30.17,SE,135,0.0,0.0,86,0.00,,,0.00,WUHU216HW,2013-01-14 07:18:00,
2013-01-14 02:23:00,60.5,56.4,30.16,SE,135,0.0,0.0,86,0.00,,,0.00,WUHU216HW,2013-01-14 07:23:00,
2013-01-14 02:28:00,60.5,56.4,30.16,SE,135,0.0,0.0,86,0.00,,,0.00,WUHU216HW,2013-01-14 07:28:00,
2013-01-14 02:33:00,60.7,56.5,30.16,SE,135,0.0,0.4,86,0.00,,,0.00,WUHU216HW,2013-01-14 07:33:00,
2013-01-14 02:38:00,60.8,56.7,30.16,SE,135,0.0,0.4,86,0.00,,,0.00,WUHU216HW,2013-01-14 07:38:00,
2013-01-14 02:43:00,60.8,56.7,30.16,SE,135,0.0,0.2,86,0.00,,,0.00,WUHU216HW,2013-01-14 07:43:00,
2013-01-14 02:48:00,60.7,56.8,30.16,SE,135,0.0,0.0,87,0.00,,,0.00,WUHU216HW,2013-01-14 07:48:00,
2013-01-14 02:53:00,60.5,56.6,30.16,SE,135,0.0,0.0,87,0.00,,,0.00,WUHU216HW,2013-01-14 07:53:00,
2013-01-14 02:58:00,60.3,56.4,30.16,SE,135,0.0,0.0,87,0.00,,,0.00,WUHU216HW,2013-01-14 07:58:00,
2013-01-14 03:03:00,60.1,56.3,30.16,SE,135,0.0,0.0,87,0.00,,,0.00,WUHU216HW,2013-01-14 08:03:00,
2013-01-14 03:08:00,59.8,55.9,30.16,SE,135,0.0,0.0,87,0.00,,,0.00,WUHU216HW,2013-01-14 08:08:00,
2013-01-14 03:13:00,59.6,55.7,30.16,SE,135,0.0,0.0,87,0.00,,,0.00,WUHU216HW,2013-01-14 08:13:00,
2013-01-14 03:18:00,59.4,55.5,30.16,SE,135,0.0,0.0,87,0.00,,,0.00,WUHU216HW,2013-01-14 08:18:00,
2013-01-14 03:23:00,59.2,55.4,30.16,SE,135,0.0,0.0,87,0.00,,,0.00,WUHU216HW,2013-01-14 08:23:00,
2013-01-14 03:28:00,59.0,55.2,30.16,SE,135,0.0,0.0,87,0.00,,,0.00,WUHU216HW,2013-01-14 08:28:00,
2013-01-14 03:33:00,59.0,55.2,30.16,SE,135,0.0,0.0,87,0.00,,,0.00,WUHU216HW,2013-01-14 08:33:00,
2013-01-14 03:38:00,59.2,55.4,30.16,SE,135,0.0,0.0,87,0.00,,,0.00,WUHU216HW,2013-01-14 08:38:00,
2013-01-14 03:43:00,59.4,55.5,30.15,SE,135,0.0,0.0,87,0.00,,,0.00,WUHU216HW,2013-01-14 08:43:00,
2013-01-14 03:48:00,59.0,55.2,30.15,SE,135,0.0,0.0,87,0.00,,,0.00,WUHU216HW,2013-01-14 08:48:00,
2013-01-14 03:54:00,59.0,55.2,30.15,SE,135,0.0,0.0,87,0.00,,,0.00,WUHU216HW,2013-01-14 08:54:00,
2013-01-14 03:59:00,59.0,55.2,30.15,SE,135,0.0,0.0,87,0.00,,,0.00,WUHU216HW,2013-01-14 08:59:00,
2013-01-14 04:04:00,58.9,55.0,30.15,SE,135,0.0,0.0,87,0.00,,,0.00,WUHU216HW,2013-01-14 09:04:00,
2013-01-14 04:09:00,58.7,54.8,30.15,SE,135,0.0,0.0,87,0.00,,,0.00,WUHU216HW,2013-01-14 09:09:00,
2013-01-14 04:14:00,58.5,54.6,30.15,SE,135,0.0,0.0,87,0.00,,,0.00,WUHU216HW,2013-01-14 09:14:00,
2013-01-14 04:18:00,58.5,54.6,30.15,SE,135,0.0,0.0,87,0.00,,,0.00,WUHU216HW,2013-01-14 09:18:00,
2013-01-14 04:24:00,58.3,54.5,30.15,SE,135,0.0,0.0,87,0.00,,,0.00,WUHU216HW,2013-01-14 09:24:00,
2013-01-14 04:29:00,58.1,54.3,30.15,SE,135,0.0,0.0,87,0.00,,,0.00,WUHU216HW,2013-01-14 09:29:00,
2013-01-14 04:34:00,58.1,54.3,30.14,SE,135,0.0,0.0,87,0.00,,,0.00,WUHU216HW,2013-01-14 09:34:00,
2013-01-14 04:39:00,58.1,54.6,30.15,SE,135,0.0,0.0,88,0.00,,,0.00,WUHU216HW,2013-01-14 09:39:00,
2013-01-14 04:44:00,58.1,54.3,30.14,SE,135,0.0,0.0,87,0.00,,,0.00,WUHU216HW,2013-01-14 09:44:00,
2013-01-14 04:49:00,58.1,54.3,30.15,SE,135,0.0,0.0,87,0.00,,,0.00,WUHU216HW,2013-01-14 09:49:00,
2013-01-14 04:54:00,58.1,54.3,30.14,SE,135,0.0,0.0,87,0.00,,,0.00,WUHU216HW,2013-01-14 09:54:00,
2013-01-14 04:59:00,58.0,54.1,30.14,SE,135,0.0,0.0,87,0.00,,,0.00,WUHU216HW,2013-01-14 09:59:00,
2013-01-14 05:04:00,58.0,54.1,30.14,SE,135,0.0,0.0,87,0.00,,,0.00,WUHU216HW,2013-01-14 10:04:00,
2013-01-14 05:09:00,57.8,53.9,30.14,SE,135,0.0,0.0,87,0.00,,,0.00,WUHU216HW,2013-01-14 10:09:00,
2013-01-14 05:14:00,57.8,53.9,30.14,SE,135,0.0,0.0,87,0.00,,,0.00,WUHU216HW,2013-01-14 10:14:00,
2013-01-14 05:19:00,57.8,53.9,30.14,SE,135,0.0,0.0,87,0.00,,,0.00,WUHU216HW,2013-01-14 10:19:00,
2013-01-14 05:24:00,57.8,53.9,30.14,SE,135,0.0,0.0,87,0.00,,,0.00,WUHU216HW,2013-01-14 10:24:00,
2013-01-14 05:29:00,58.0,54.1,30.14,SE,135,0.0,0.0,87,0.00,,,0.00,WUHU216HW,2013-01-14 10:29:00,
2013-01-14 05:34:00,58.0,54.1,30.14,SE,135,0.0,0.0,87,0.00,,,0.00,WUHU216HW,2013-01-14 10:34:00,
2013-01-14 05:39:00,57.8,53.9,30.14,SE,135,0.0,0.0,87,0.00,,,0.00,WUHU216HW,2013-01-14 10:39:00,
2013-01-14 05:44:00,57.8,53.9,30.14,SE,135,0.0,0.0,87,0.00,,,0.00,WUHU216HW,2013-01-14 10:44:00,
2013-01-14 05:49:00,57.8,53.9,30.14,SE,135,0.0,0.0,87,0.00,,,0.00,WUHU216HW,2013-01-14 10:49:00,
2013-01-14 05:54:00,57.8,53.9,30.14,SE,135,0.0,0.0,87,0.00,,,0.00,WUHU216HW,2013-01-14 10:54:00,
2013-01-14 05:59:00,58.0,54.1,30.14,SE,135,0.0,0.0,87,0.00,,,0.00,WUHU216HW,2013-01-14 10:59:00,
2013-01-14 06:04:00,57.8,53.9,30.14,SE,135,0.0,0.0,87,0.00,,,0.00,WUHU216HW,2013-01-14 11:04:00,
2013-01-14 06:09:00,57.8,54.3,30.14,SE,135,0.0,0.0,88,0.00,,,0.00,WUHU216HW,2013-01-14 11:09:00,
2013-01-14 06:14:00,57.6,54.1,30.14,SE,135,0.0,0.4,88,0.00,,,0.00,WUHU216HW,2013-01-14 11:14:00,
2013-01-14 06:19:00,57.6,53.7,30.14,SE,135,0.2,0.4,87,0.00,,,0.00,WUHU216HW,2013-01-14 11:19:00,
2013-01-14 06:24:00,57.4,53.6,30.14,SE,135,0.2,0.4,87,0.00,,,0.00,WUHU216HW,2013-01-14 11:24:00,
2013-01-14 06:29:00,57.4,53.6,30.14,ESE,113,0.0,0.4,87,0.00,,,0.00,WUHU216HW,2013-01-14 11:29:00,
2013-01-14 06:34:00,57.2,53.4,30.14,ESE,113,0.2,0.4,87,0.00,,,0.00,WUHU216HW,2013-01-14 11:34:00,
2013-01-14 06:39:00,57.2,53.7,30.14,ESE,113,0.0,2.0,88,0.00,,,0.00,WUHU216HW,2013-01-14 11:39:00,
2013-01-14 06:44:00,57.6,54.1,30.14,ESE,113,0.0,2.0,88,0.00,,,0.00,WUHU216HW,2013-01-14 11:44:00,
2013-01-14 06:49:00,57.8,54.3,30.14,ESE,113,0.0,0.2,88,0.00,,,0.00,WUHU216HW,2013-01-14 11:49:00,
2013-01-14 06:54:00,57.6,54.1,30.15,WSW,248,0.0,0.4,88,0.00,,,0.00,WUHU216HW,2013-01-14 11:54:00,
2013-01-14 06:59:00,57.8,54.3,30.15,East,90,0.2,0.4,88,0.00,,,0.00,WUHU216HW,2013-01-14 11:59:00,
2013-01-14 07:04:00,57.6,54.1,30.15,SSW,203,0.0,0.2,88,0.00,,,0.00,WUHU216HW,2013-01-14 12:04:00,
2013-01-14 07:09:00,57.8,54.3,30.16,SSW,203,0.2,0.2,88,0.00,,,0.00,WUHU216HW,2013-01-14 12:09:00,
2013-01-14 07:14:00,58.0,54.5,30.16,SSW,203,0.0,0.4,88,0.00,,,0.00,WUHU216HW,2013-01-14 12:14:00,
2013-01-14 07:19:00,58.1,54.6,30.16,SE,135,0.2,0.4,88,0.00,,,0.00,WUHU216HW,2013-01-14 12:19:00,
2013-01-14 07:24:00,58.0,54.5,30.16,SE,135,0.0,0.4,88,0.00,,,0.00,WUHU216HW,2013-01-14 12:24:00,
2013-01-14 07:29:00,58.0,54.5,30.16,SE,135,0.2,0.4,88,0.00,,,0.00,WUHU216HW,2013-01-14 12:29:00,
2013-01-14 07:34:00,58.0,54.5,30.16,SW,225,0.2,0.2,88,0.00,,,0.00,WUHU216HW,2013-01-14 12:34:00,
2013-01-14 07:39:00,58.1,54.6,30.16,SW,225,0.2,0.4,88,0.00,,,0.00,WUHU216HW,2013-01-14 12:39:00,
2013-01-14 07:44:00,58.7,55.4,30.16,SSE,158,0.4,0.4,89,0.00,,,0.00,WUHU216HW,2013-01-14 12:44:00,
2013-01-14 07:49:00,58.5,55.3,30.16,ESE,113,0.0,0.4,89,0.00,,,0.00,WUHU216HW,2013-01-14 12:49:00,
2013-01-14 07:54:00,58.7,55.4,30.16,SE,135,0.2,0.4,89,0.00,,,0.00,WUHU216HW,2013-01-14 12:54:00,
2013-01-14 07:59:00,58.9,55.6,30.17,SE,135,0.0,0.4,89,0.00,,,0.00,WUHU216HW,2013-01-14 12:59:00,
2013-01-14 08:04:00,59.2,56.0,30.17,SE,135,0.0,0.2,89,0.00,,,0.00,WUHU216HW,2013-01-14 13:04:00,
2013-01-14 08:09:00,59.9,57.1,30.17,West,270,0.0,0.7,90,0.00,,,0.00,WUHU216HW,2013-01-14 13:09:00,
2013-01-14 08:14:00,60.3,57.4,30.18,West,270,1.3,1.3,90,0.00,,,0.00,WUHU216HW,2013-01-14 13:14:00,
2013-01-14 08:19:00,60.8,58.0,30.18,West,270,0.7,1.3,90,0.00,,,0.00,WUHU216HW,2013-01-14 13:19:00,
2013-01-14 08:24:00,61.2,58.3,30.18,West,270,0.0,1.3,90,0.00,,,0.00,WUHU216HW,2013-01-14 13:24:00,
2013-01-14 08:29:00,61.4,58.5,30.18,SE,135,0.7,0.7,90,0.00,,,0.00,WUHU216HW,2013-01-14 13:29:00,
2013-01-14 08:34:00,61.7,58.9,30.18,SE,135,1.1,1.3,90,0.00,,,0.00,WUHU216HW,2013-01-14 13:34:00,
2013-01-14 08:39:00,62.1,59.2,30.18,WSW,248,0.0,1.3,90,0.00,,,0.00,WUHU216HW,2013-01-14 13:39:00,
2013-01-14 08:44:00,62.6,59.8,30.18,SW,225,0.9,3.4,90,0.00,,,0.00,WUHU216HW,2013-01-14 13:44:00,
2013-01-14 08:49:00,63.2,60.3,30.18,WNW,293,0.4,4.0,90,0.00,,,0.00,WUHU216HW,2013-01-14 13:49:00,
2013-01-14 08:54:00,63.7,60.8,30.19,SE,135,1.1,4.0,90,0.00,,,0.00,WUHU216HW,2013-01-14 13:54:00,
2013-01-14 08:59:00,64.3,61.4,30.19,SE,135,1.8,3.6,90,0.00,,,0.00,WUHU216HW,2013-01-14 13:59:00,
2013-01-14 09:04:00,64.6,61.8,30.19,SW,225,0.4,3.6,90,0.00,,,0.00,WUHU216HW,2013-01-14 14:04:00,
2013-01-14 09:09:00,65.2,62.2,30.19,SE,135,3.4,3.4,90,0.00,,,0.00,WUHU216HW,2013-01-14 14:09:00,
2013-01-14 09:14:00,65.5,62.6,30.19,SSW,203,2.5,4.0,90,0.00,,,0.00,WUHU216HW,2013-01-14 14:14:00,
2013-01-14 09:19:00,65.9,62.8,30.19,SW,225,1.1,4.0,90,0.00,,,0.00,WUHU216HW,2013-01-14 14:19:00,
2013-01-14 09:24:00,66.6,63.5,30.19,SE,135,2.7,4.7,90,0.00,,,0.00,WUHU216HW,2013-01-14 14:24:00,
2013-01-14 09:29:00,67.1,64.1,30.19,SSE,158,1.1,4.7,90,0.00,,,0.00,WUHU216HW,2013-01-14 14:29:00,
2013-01-14 09:34:00,67.7,64.3,30.19,South,180,1.8,4.7,89,0.00,,,0.00,WUHU216HW,2013-01-14 14:34:00,
2013-01-14 09:39:00,68.2,64.5,30.20,SE,135,1.6,4.7,88,0.00,,,0.00,WUHU216HW,2013-01-14 14:39:00,
2013-01-14 09:44:00,68.8,64.7,30.20,SSE,158,2.2,4.5,87,0.00,,,0.00,WUHU216HW,2013-01-14 14:44:00,
2013-01-14 09:49:00,69.1,64.7,30.20,West,270,1.8,4.7,86,0.00,,,0.00,WUHU216HW,2013-01-14 14:49:00,
2013-01-14 09:54:00,69.5,65.1,30.20,SW,225,0.9,6.0,86,0.00,,,0.00,WUHU216HW,2013-01-14 14:54:00,
2013-01-14 09:59:00,69.8,65.1,30.21,SSE,158,2.5,6.0,85,0.00,,,0.00,WUHU216HW,2013-01-14 14:59:00,
2013-01-14 10:04:00,70.2,65.1,30.20,SE,135,2.2,5.8,84,0.00,,,0.00,WUHU216HW,2013-01-14 15:04:00,
2013-01-14 10:09:00,70.6,65.1,30.20,SSW,203,2.7,7.6,83,0.00,,,0.00,WUHU216HW,2013-01-14 15:09:00,
2013-01-14 10:14:00,70.9,65.2,30.20,SE,135,1.1,7.6,82,0.00,,,0.00,WUHU216HW,2013-01-14 15:14:00,
2013-01-14 10:19:00,71.3,65.5,30.19,SE,135,2.2,6.7,82,0.00,,,0.00,WUHU216HW,2013-01-14 15:19:00,
2013-01-14 10:24:00,71.6,65.2,30.20,WSW,248,4.7,4.7,80,0.00,,,0.00,WUHU216HW,2013-01-14 15:24:00,
2013-01-14 10:29:00,72.0,64.8,30.20,ESE,113,3.6,6.3,78,0.00,,,0.00,WUHU216HW,2013-01-14 15:29:00,
2013-01-14 10:34:00,72.4,64.7,30.19,SE,135,4.5,6.3,77,0.00,,,0.00,WUHU216HW,2013-01-14 15:34:00,
2013-01-14 10:39:00,72.7,65.9,30.19,SW,225,2.5,7.6,79,0.00,,,0.00,WUHU216HW,2013-01-14 15:39:00,
2013-01-14 10:44:00,72.9,65.7,30.19,ESE,113,1.6,8.7,78,0.00,,,0.00,WUHU216HW,2013-01-14 15:44:00,
2013-01-14 10:49:00,73.3,65.6,30.19,South,180,3.4,8.7,77,0.00,,,0.00,WUHU216HW,2013-01-14 15:49:00,
2013-01-14 10:54:00,73.8,65.8,30.19,SE,135,1.6,4.9,76,0.00,,,0.00,WUHU216HW,2013-01-14 15:54:00,
2013-01-14 10:59:00,74.2,65.8,30.19,SE,135,1.8,4.9,75,0.00,,,0.00,WUHU216HW,2013-01-14 15:59:00,
2013-01-14 11:04:00,74.5,66.1,30.19,SE,135,3.6,3.6,75,0.00,,,0.00,WUHU216HW,2013-01-14 16:04:00,
2013-01-14 11:09:00,74.9,66.1,30.18,SSW,203,3.4,3.6,74,0.00,,,0.00,WUHU216HW,2013-01-14 16:09:00,
2013-01-14 11:14:00,75.1,65.4,30.18,South,180,3.8,5.4,72,0.00,,,0.00,WUHU216HW,2013-01-14 16:14:00,
2013-01-14 11:19:00,75.4,65.0,30.18,SSE,158,2.2,5.4,70,0.00,,,0.00,WUHU216HW,2013-01-14 16:19:00,
2013-01-14 11:24:00,75.6,65.5,30.18,SSW,203,2.7,7.8,71,0.00,,,0.00,WUHU216HW,2013-01-14 16:24:00,
2013-01-14 11:29:00,76.0,65.5,30.18,WSW,248,1.6,7.8,70,0.00,,,0.00,WUHU216HW,2013-01-14 16:29:00,
2013-01-14 11:34:00,76.5,66.1,30.17,WSW,248,1.1,5.4,70,0.00,,,0.00,WUHU216HW,2013-01-14 16:34:00,
2013-01-14 11:39:00,76.9,65.5,30.17,SE,135,4.0,6.5,68,0.00,,,0.00,WUHU216HW,2013-01-14 16:39:00,
2013-01-14 11:44:00,77.2,65.4,30.17,SE,135,4.5,6.5,67,0.00,,,0.00,WUHU216HW,2013-01-14 16:44:00,
2013-01-14 11:49:00,77.4,65.6,30.16,NNW,338,2.0,8.9,67,0.00,,,0.00,WUHU216HW,2013-01-14 16:49:00,
2013-01-14 11:54:00,77.9,66.5,30.16,South,180,4.7,8.9,68,0.00,,,0.00,WUHU216HW,2013-01-14 16:54:00,
2013-01-14 11:59:00,78.3,66.0,30.16,SE,135,3.6,4.7,66,0.00,,,0.00,WUHU216HW,2013-01-14 16:59:00,
2013-01-14 12:04:00,78.8,64.8,30.16,WNW,293,2.5,7.6,62,0.00,,,0.00,WUHU216HW,2013-01-14 17:04:00,
2013-01-14 12:09:00,79.0,66.3,30.15,SE,135,3.1,7.6,65,0.00,,,0.00,WUHU216HW,2013-01-14 17:09:00,
2013-01-14 12:14:00,79.4,65.7,30.15,SE,135,4.7,5.1,63,0.00,,,0.00,WUHU216HW,2013-01-14 17:14:00,
2013-01-14 12:19:00,79.6,65.4,30.15,ESE,113,2.7,5.8,62,0.00,,,0.00,WUHU216HW,2013-01-14 17:19:00,
2013-01-14 12:24:00,80.1,65.9,30.15,WSW,248,4.5,5.8,62,0.00,,,0.00,WUHU216HW,2013-01-14 17:24:00,
2013-01-14 12:29:00,80.5,65.8,30.15,ESE,113,3.4,5.8,61,0.00,,,0.00,WUHU216HW,2013-01-14 17:29:00,
2013-01-14 12:34:00,80.6,65.5,30.15,SSW,203,3.4,6.5,60,0.00,,,0.00,WUHU216HW,2013-01-14 17:34:00,
2013-01-14 12:39:00,80.6,66.0,30.14,SW,225,1.8,6.5,61,0.00,,,0.00,WUHU216HW,2013-01-14 17:39:00,
2013-01-14 12:44:00,81.2,65.5,30.14,SSW,203,3.1,4.3,59,0.00,,,0.00,WUHU216HW,2013-01-14 17:44:00,
2013-01-14 12:49:00,81.0,65.9,30.14,ESE,113,3.8,4.7,60,0.00,,,0.00,WUHU216HW,2013-01-14 17:49:00,
2013-01-14 12:54:00,81.0,65.9,30.13,WSW,248,2.0,5.4,60,0.00,,,0.00,WUHU216HW,2013-01-14 17:54:00,
2013-01-14 12:59:00,81.0,65.4,30.13,ESE,113,2.5,9.2,59,0.00,,,0.00,WUHU216HW,2013-01-14 17:59:00,
2013-01-14 13:04:00,80.3,65.6,30.13,ESE,113,1.8,9.2,61,0.00,,,0.00,WUHU216HW,2013-01-14 18:04:00,
2013-01-14 13:09:00,80.8,66.6,30.13,SE,135,1.6,6.9,62,0.00,,,0.00,WUHU216HW,2013-01-14 18:09:00,
2013-01-14 13:14:00,81.4,65.2,30.13,WNW,293,1.3,4.7,58,0.00,,,0.00,WUHU216HW,2013-01-14 18:14:00,
2013-01-14 13:19:00,81.0,64.3,30.13,SE,135,5.1,5.1,57,0.00,,,0.00,WUHU216HW,2013-01-14 18:19:00,
2013-01-14 13:24:00,80.5,65.3,30.13,WSW,248,2.5,5.1,60,0.00,,,0.00,WUHU216HW,2013-01-14 18:24:00,
2013-01-14 13:29:00,80.1,64.5,30.13,SE,135,6.9,6.9,59,0.00,,,0.00,WUHU216HW,2013-01-14 18:29:00,
2013-01-14 13:34:00,80.1,64.5,30.12,WNW,293,1.1,6.9,59,0.00,,,0.00,WUHU216HW,2013-01-14 18:34:00,
2013-01-14 13:39:00,79.7,66.1,30.12,ESE,113,2.5,6.9,63,0.00,,,0.00,WUHU216HW,2013-01-14 18:39:00,
2013-01-14 13:44:00,79.7,66.1,30.12,SE,135,2.0,5.4,63,0.00,,,0.00,WUHU216HW,2013-01-14 18:44:00,
2013-01-14 13:49:00,79.9,66.3,30.12,ESE,113,1.8,5.4,63,0.00,,,0.00,WUHU216HW,2013-01-14 18:49:00,
2013-01-14 13:54:00,80.5,66.7,30.12,SE,135,2.7,4.7,63,0.00,,,0.00,WUHU216HW,2013-01-14 18:54:00,
2013-01-14 13:59:00,81.0,67.2,30.12,SE,135,3.4,4.7,63,0.00,,,0.00,WUHU216HW,2013-01-14 18:59:00,
2013-01-14 14:04:00,81.0,66.8,30.12,ESE,113,2.9,4.9,62,0.00,,,0.00,WUHU216HW,2013-01-14 19:04:00,
2013-01-14 14:09:00,81.0,66.8,30.12,SE,135,3.1,6.5,62,0.00,,,0.00,WUHU216HW,2013-01-14 19:09:00,
2013-01-14 14:14:00,80.6,66.0,30.11,ESE,113,4.7,6.5,61,0.00,,,0.00,WUHU216HW,2013-01-14 19:14:00,
2013-01-14 14:19:00,80.3,65.6,30.11,SE,135,4.7,6.3,61,0.00,,,0.00,WUHU216HW,2013-01-14 19:19:00,
2013-01-14 14:24:00,80.5,66.2,30.11,SE,135,3.1,6.3,62,0.00,,,0.00,WUHU216HW,2013-01-14 19:24:00,
2013-01-14 14:29:00,81.0,66.3,30.11,SE,135,5.1,8.3,61,0.00,,,0.00,WUHU216HW,2013-01-14 19:29:00,
2013-01-14 14:34:00,81.0,64.8,30.11,ESE,113,3.6,8.3,58,0.00,,,0.00,WUHU216HW,2013-01-14 19:34:00,
2013-01-14 14:39:00,80.5,65.3,30.12,SE,135,4.0,5.1,60,0.00,,,0.00,WUHU216HW,2013-01-14 19:39:00,
2013-01-14 14:44:00,80.6,66.4,30.12,ESE,113,6.0,6.9,62,0.00,,,0.00,WUHU216HW,2013-01-14 19:44:00,
2013-01-14 14:49:00,80.8,66.2,30.12,SE,135,2.9,6.9,61,0.00,,,0.00,WUHU216HW,2013-01-14 19:49:00,
2013-01-14 14:54:00,81.0,66.3,30.12,SE,135,4.0,6.5,61,0.00,,,0.00,WUHU216HW,2013-01-14 19:54:00,
2013-01-14 14:59:00,80.8,65.7,30.12,North,0,1.1,6.0,60,0.00,,,0.00,WUHU216HW,2013-01-14 19:59:00,
2013-01-14 15:04:00,80.6,65.0,30.13,ESE,113,2.2,5.8,59,0.00,,,0.00,WUHU216HW,2013-01-14 20:04:00,
2013-01-14 15:09:00,80.3,65.2,30.13,NE,45,2.2,6.9,60,0.00,,,0.00,WUHU216HW,2013-01-14 20:09:00,
2013-01-14 15:14:00,80.3,65.2,30.13,ESE,113,4.3,7.6,60,0.00,,,0.00,WUHU216HW,2013-01-14 20:14:00,
2013-01-14 15:19:00,80.1,65.5,30.13,ESE,113,2.0,7.6,61,0.00,,,0.00,WUHU216HW,2013-01-14 20:19:00,
2013-01-14 15:24:00,79.9,64.9,30.12,SE,135,3.4,6.9,60,0.00,,,0.00,WUHU216HW,2013-01-14 20:24:00,
2013-01-14 15:29:00,80.1,64.5,30.13,ESE,113,2.5,6.5,59,0.00,,,0.00,WUHU216HW,2013-01-14 20:29:00,
2013-01-14 15:34:00,79.9,63.8,30.13,West,270,0.4,7.4,58,0.00,,,0.00,WUHU216HW,2013-01-14 20:34:00,
2013-01-14 15:39:00,79.7,64.2,30.13,ESE,113,3.1,7.6,59,0.00,,,0.00,WUHU216HW,2013-01-14 20:39:00,
2013-01-14 15:44:00,79.6,64.0,30.13,ESE,113,3.8,7.6,59,0.00,,,0.00,WUHU216HW,2013-01-14 20:44:00,
2013-01-14 15:49:00,79.6,63.6,30.13,SE,135,5.4,8.5,58,0.00,,,0.00,WUHU216HW,2013-01-14 20:49:00,
2013-01-14 15:54:00,79.0,63.0,30.13,ESE,113,1.8,8.5,58,0.00,,,0.00,WUHU216HW,2013-01-14 20:54:00,
2013-01-14 15:59:00,78.3,63.4,30.13,SE,135,2.9,7.4,60,0.00,,,0.00,WUHU216HW,2013-01-14 20:59:00,
2013-01-14 16:04:00,78.3,63.8,30.14,SE,135,2.5,5.4,61,0.00,,,0.00,WUHU216HW,2013-01-14 21:04:00,
2013-01-14 16:09:00,78.5,64.0,30.14,ESE,113,4.0,4.0,61,0.00,,,0.00,WUHU216HW,2013-01-14 21:09:00,
2013-01-14 16:14:00,78.3,63.4,30.14,SE,135,4.0,6.3,60,0.00,,,0.00,WUHU216HW,2013-01-14 21:14:00,
2013-01-14 16:19:00,77.9,63.0,30.14,SE,135,5.4,6.3,60,0.00,,,0.00,WUHU216HW,2013-01-14 21:19:00,
2013-01-14 16:24:00,77.6,63.6,30.14,ESE,113,2.5,5.4,62,0.00,,,0.00,WUHU216HW,2013-01-14 21:24:00,
2013-01-14 16:29:00,77.4,63.4,30.14,ESE,113,2.9,5.4,62,0.00,,,0.00,WUHU216HW,2013-01-14 21:29:00,
2013-01-14 16:34:00,77.0,63.5,30.14,SE,135,4.0,5.1,63,0.00,,,0.00,WUHU216HW,2013-01-14 21:34:00,
2013-01-14 16:39:00,76.9,63.3,30.14,SE,135,2.0,6.3,63,0.00,,,0.00,WUHU216HW,2013-01-14 21:39:00,
2013-01-14 16:44:00,76.5,63.4,30.14,ESE,113,1.1,6.3,64,0.00,,,0.00,WUHU216HW,2013-01-14 21:44:00,
2013-01-14 16:49:00,76.3,63.2,30.14,East,90,4.0,5.4,64,0.00,,,0.00,WUHU216HW,2013-01-14 21:49:00,
2013-01-14 16:54:00,76.0,63.4,30.14,ESE,113,1.1,5.6,65,0.00,,,0.00,WUHU216HW,2013-01-14 21:54:00,
2013-01-14 16:59:00,75.6,63.0,30.14,ESE,113,2.0,5.6,65,0.00,,,0.00,WUHU216HW,2013-01-14 21:59:00,
2013-01-14 17:04:00,75.1,62.9,30.14,SE,135,3.6,5.4,66,0.00,,,0.00,WUHU216HW,2013-01-14 22:04:00,
2013-01-14 17:09:00,74.5,62.8,30.14,SE,135,3.4,5.4,67,0.00,,,0.00,WUHU216HW,2013-01-14 22:09:00,
2013-01-14 17:14:00,74.2,62.5,30.15,SE,135,1.1,4.3,67,0.00,,,0.00,WUHU216HW,2013-01-14 22:14:00,
2013-01-14 17:19:00,73.8,62.7,30.15,SE,135,2.5,4.7,68,0.00,,,0.00,WUHU216HW,2013-01-14 22:19:00,
2013-01-14 17:24:00,73.4,62.7,30.15,ESE,113,0.7,4.7,69,0.00,,,0.00,WUHU216HW,2013-01-14 22:24:00,
2013-01-14 17:29:00,73.1,62.4,30.16,SE,135,2.2,3.8,69,0.00,,,0.00,WUHU216HW,2013-01-14 22:29:00,
2013-01-14 17:34:00,72.9,62.6,30.16,SE,135,3.4,3.4,70,0.00,,,0.00,WUHU216HW,2013-01-14 22:34:00,
2013-01-14 17:39:00,72.5,62.3,30.15,ESE,113,1.6,3.6,70,0.00,,,0.00,WUHU216HW,2013-01-14 22:39:00,
2013-01-14 17:44:00,72.2,62.3,30.16,SE,135,2.2,3.6,71,0.00,,,0.00,WUHU216HW,2013-01-14 22:44:00,
2013-01-14 17:49:00,72.0,62.1,30.16,SE,135,1.6,3.4,71,0.00,,,0.00,WUHU216HW,2013-01-14 22:49:00,
2013-01-14 17:54:00,71.6,61.7,30.16,ESE,113,2.9,3.4,71,0.00,,,0.00,WUHU216HW,2013-01-14 22:54:00,
2013-01-14 17:59:00,71.5,61.6,30.16,ESE,113,1.6,4.3,71,0.00,,,0.00,WUHU216HW,2013-01-14 22:59:00,
2013-01-14 18:04:00,71.1,61.6,30.16,ESE,113,1.1,4.3,72,0.00,,,0.00,WUHU216HW,2013-01-14 23:04:00,
2013-01-14 18:09:00,70.7,61.2,30.16,SE,135,1.1,1.8,72,0.00,,,0.00,WUHU216HW,2013-01-14 23:09:00,
2013-01-14 18:14:00,70.6,61.0,30.16,SE,135,2.5,2.5,72,0.00,,,0.00,WUHU216HW,2013-01-14 23:14:00,
2013-01-14 18:19:00,70.2,61.1,30.16,ENE,68,0.9,4.0,73,0.00,,,0.00,WUHU216HW,2013-01-14 23:19:00,
2013-01-14 18:24:00,70.0,61.3,30.16,ESE,113,2.5,4.0,74,0.00,,,0.00,WUHU216HW,2013-01-14 23:24:00,
2013-01-14 18:29:00,69.8,61.1,30.16,SE,135,0.2,3.1,74,0.00,,,0.00,WUHU216HW,2013-01-14 23:29:00,
2013-01-14 18:34:00,69.7,60.9,30.16,ESE,113,2.0,3.1,74,0.00,,,0.00,WUHU216HW,2013-01-14 23:34:00,
2013-01-14 18:39:00,69.5,60.8,30.16,SE,135,1.3,4.5,74,0.00,,,0.00,WUHU216HW,2013-01-14 23:39:00,
2013-01-14 18:44:00,69.3,61.0,30.16,ESE,113,1.8,4.5,75,0.00,,,0.00,WUHU216HW,2013-01-14 23:44:00,
2013-01-14 18:49:00,69.1,60.9,30.16,SE,135,0.9,3.6,75,0.00,,,0.00,WUHU216HW,2013-01-14 23:49:00,
2013-01-14 18:54:00,69.1,60.9,30.16,ESE,113,2.0,2.7,75,0.00,,,0.00,WUHU216HW,2013-01-14 23:54:00,
2013-01-14 18:59:00,68.8,60.5,30.16,SE,135,4.0,4.0,75,0.00,,,0.00,WUHU216HW,2013-01-14 23:59:00,
2013-01-14 19:04:00,68.8,60.5,30.16,SE,135,0.7,4.0,75,0.00,,,0.00,WUHU216HW,2013-01-15 00:04:00,
2013-01-14 19:09:00,68.6,60.8,30.16,ESE,113,1.8,4.0,76,0.00,,,0.00,WUHU216HW,2013-01-15 00:09:00,
2013-01-14 19:14:00,68.4,60.6,30.17,ESE,113,2.2,2.5,76,0.00,,,0.00,WUHU216HW,2013-01-15 00:14:00,
2013-01-14 19:19:00,68.2,60.4,30.17,SE,135,2.2,3.8,76,0.00,,,0.00,WUHU216HW,2013-01-15 00:19:00,
2013-01-14 19:24:00,68.0,60.2,30.17,SE,135,1.6,4.0,76,0.00,,,0.00,WUHU216HW,2013-01-15 00:24:00,
2013-01-14 19:29:00,68.0,60.6,30.17,SE,135,1.1,4.0,77,0.00,,,0.00,WUHU216HW,2013-01-15 00:29:00,
2013-01-14 19:34:00,68.0,60.6,30.17,SE,135,1.8,4.3,77,0.00,,,0.00,WUHU216HW,2013-01-15 00:34:00,
2013-01-14 19:39:00,67.9,60.4,30.17,ESE,113,2.9,4.3,77,0.00,,,0.00,WUHU216HW,2013-01-15 00:39:00,
2013-01-14 19:44:00,67.9,60.4,30.16,ESE,113,1.1,3.8,77,0.00,,,0.00,WUHU216HW,2013-01-15 00:44:00,
2013-01-14 19:49:00,67.9,60.4,30.16,SE,135,1.8,3.8,77,0.00,,,0.00,WUHU216HW,2013-01-15 00:49:00,
2013-01-14 19:54:00,67.7,60.7,30.16,ESE,113,0.7,3.4,78,0.00,,,0.00,WUHU216HW,2013-01-15 00:54:00,
2013-01-14 19:59:00,67.7,60.7,30.16,ESE,113,1.8,4.5,78,0.00,,,0.00,WUHU216HW,2013-01-15 00:59:00,
2013-01-14 20:04:00,67.7,60.7,30.16,SE,135,1.1,4.5,78,0.00,,,0.00,WUHU216HW,2013-01-15 01:04:00,
2013-01-14 20:09:00,67.7,61.0,30.16,SSE,158,1.1,3.6,79,0.00,,,0.00,WUHU216HW,2013-01-15 01:09:00,
2013-01-14 20:14:00,67.5,60.9,30.16,SE,135,0.7,3.6,79,0.00,,,0.00,WUHU216HW,2013-01-15 01:14:00,
2013-01-14 20:19:00,67.5,61.2,30.16,SE,135,3.8,3.8,80,0.00,,,0.00,WUHU216HW,2013-01-15 01:19:00,
2013-01-14 20:24:00,67.7,61.4,30.16,SE,135,2.2,5.4,80,0.00,,,0.00,WUHU216HW,2013-01-15 01:24:00,
2013-01-14 20:29:00,67.5,60.9,30.16,ESE,113,1.1,5.4,79,0.00,,,0.00,WUHU216HW,2013-01-15 01:29:00,
2013-01-14 20:34:00,67.5,61.2,30.16,SSE,158,1.3,4.0,80,0.00,,,0.00,WUHU216HW,2013-01-15 01:34:00,
2013-01-14 20:39:00,67.5,61.2,30.16,SE,135,1.1,3.4,80,0.00,,,0.00,WUHU216HW,2013-01-15 01:39:00,
2013-01-14 20:44:00,67.3,61.0,30.16,SE,135,4.0,4.0,80,0.00,,,0.00,WUHU216HW,2013-01-15 01:44:00,
2013-01-14 20:49:00,67.3,61.0,30.16,SE,135,3.4,4.0,80,0.00,,,0.00,WUHU216HW,2013-01-15 01:49:00,
2013-01-14 20:54:00,67.3,61.0,30.16,SE,135,1.1,3.4,80,0.00,,,0.00,WUHU216HW,2013-01-15 01:54:00,
2013-01-14 20:59:00,67.3,61.0,30.16,SE,135,0.4,3.4,80,0.00,,,0.00,WUHU216HW,2013-01-15 01:59:00,
2013-01-14 21:04:00,67.3,61.0,30.16,SE,135,0.7,3.1,80,0.00,,,0.00,WUHU216HW,2013-01-15 02:04:00,
2013-01-14 21:09:00,67.1,60.8,30.16,SE,135,0.7,2.5,80,0.00,,,0.00,WUHU216HW,2013-01-15 02:09:00,
2013-01-14 21:14:00,67.1,60.8,30.16,ESE,113,1.1,2.9,80,0.00,,,0.00,WUHU216HW,2013-01-15 02:14:00,
2013-01-14 21:19:00,67.1,60.8,30.16,ESE,113,1.1,2.9,80,0.00,,,0.00,WUHU216HW,2013-01-15 02:19:00,
2013-01-14 21:24:00,67.0,60.7,30.16,SE,135,1.1,2.0,80,0.00,,,0.00,WUHU216HW,2013-01-15 02:24:00,
2013-01-14 21:29:00,67.0,60.7,30.16,SE,135,1.3,2.2,80,0.00,,,0.00,WUHU216HW,2013-01-15 02:29:00,
2013-01-14 21:34:00,66.8,60.5,30.16,ESE,113,0.4,2.2,80,0.00,,,0.00,WUHU216HW,2013-01-15 02:34:00,
2013-01-14 21:39:00,66.8,60.9,30.16,ESE,113,3.4,3.4,81,0.00,,,0.00,WUHU216HW,2013-01-15 02:39:00,
2013-01-14 21:44:00,66.8,60.9,30.16,SE,135,2.5,4.9,81,0.00,,,0.00,WUHU216HW,2013-01-15 02:44:00,
2013-01-14 21:49:00,66.8,61.1,30.16,ESE,113,5.4,5.4,82,0.00,,,0.00,WUHU216HW,2013-01-15 02:49:00,
2013-01-14 21:54:00,66.8,61.1,30.16,ESE,113,1.8,5.4,82,0.00,,,0.00,WUHU216HW,2013-01-15 02:54:00,
2013-01-14 21:59:00,66.8,61.1,30.16,SE,135,4.0,4.7,82,0.00,,,0.00,WUHU216HW,2013-01-15 02:59:00,
2013-01-14 22:04:00,67.0,61.3,30.16,SSE,158,1.3,5.4,82,0.00,,,0.00,WUHU216HW,2013-01-15 03:04:00,
2013-01-14 22:09:00,67.0,61.3,30.16,SE,135,2.0,5.4,82,0.00,,,0.00,WUHU216HW,2013-01-15 03:09:00,
2013-01-14 22:14:00,67.0,61.3,30.16,SE,135,1.1,3.6,82,0.00,,,0.00,WUHU216HW,2013-01-15 03:14:00,
2013-01-14 22:19:00,67.0,61.3,30.16,SE,135,2.0,3.4,82,0.00,,,0.00,WUHU216HW,2013-01-15 03:19:00,
2013-01-14 22:24:00,67.0,61.3,30.16,ESE,113,3.4,3.6,82,0.00,,,0.00,WUHU216HW,2013-01-15 03:24:00,
2013-01-14 22:29:00,67.0,61.3,30.16,ESE,113,1.8,3.6,82,0.00,,,0.00,WUHU216HW,2013-01-15 03:29:00,
2013-01-14 22:34:00,67.0,61.3,30.15,SE,135,2.5,3.4,82,0.00,,,0.00,WUHU216HW,2013-01-15 03:34:00,
2013-01-14 22:39:00,67.0,61.3,30.16,ESE,113,2.0,4.7,82,0.00,,,0.00,WUHU216HW,2013-01-15 03:39:00,
2013-01-14 22:44:00,67.0,61.3,30.15,SE,135,2.2,4.7,82,0.00,,,0.00,WUHU216HW,2013-01-15 03:44:00,
2013-01-14 22:49:00,67.0,61.3,30.16,ESE,113,1.3,4.3,82,0.00,,,0.00,WUHU216HW,2013-01-15 03:49:00,
2013-01-14 22:54:00,67.0,61.3,30.16,ESE,113,2.7,3.4,82,0.00,,,0.00,WUHU216HW,2013-01-15 03:54:00,
2013-01-14 22:59:00,67.0,61.3,30.16,SE,135,0.4,3.4,82,0.00,,,0.00,WUHU216HW,2013-01-15 03:59:00,
2013-01-14 23:04:00,67.0,61.3,30.16,SE,135,1.1,2.7,82,0.00,,,0.00,WUHU216HW,2013-01-15 04:04:00,
2013-01-14 23:09:00,67.0,61.3,30.16,SE,135,1.3,2.9,82,0.00,,,0.00,WUHU216HW,2013-01-15 04:09:00,
2013-01-14 23:14:00,66.8,61.1,30.16,SE,135,0.4,2.9,82,0.00,,,0.00,WUHU216HW,2013-01-15 04:14:00,
2013-01-14 23:19:00,66.6,60.9,30.16,SE,135,0.0,1.3,82,0.00,,,0.00,WUHU216HW,2013-01-15 04:19:00,
2013-01-14 23:24:00,66.6,60.9,30.16,ESE,113,1.1,1.8,82,0.00,,,0.00,WUHU216HW,2013-01-15 04:24:00,
2013-01-14 23:29:00,66.6,60.9,30.16,SE,135,0.9,1.8,82,0.00,,,0.00,WUHU216HW,2013-01-15 04:29:00,
2013-01-14 23:34:00,66.6,60.9,30.16,ESE,113,1.8,2.5,82,0.00,,,0.00,WUHU216HW,2013-01-15 04:34:00,
2013-01-14 23:39:00,66.6,60.9,30.16,SE,135,0.4,2.5,82,0.00,,,0.00,WUHU216HW,2013-01-15 04:39:00,
2013-01-14 23:44:00,66.4,60.8,30.16,ESE,113,0.9,1.8,82,0.00,,,0.00,WUHU216HW,2013-01-15 04:44:00,
2013-01-14 23:49:00,66.2,60.6,30.16,SE,135,1.3,3.1,82,0.00,,,0.00,WUHU216HW,2013-01-15 04:49:00,
2013-01-14 23:54:00,66.2,60.6,30.16,SE,135,1.1,3.1,82,0.00,,,0.00,WUHU216HW,2013-01-15 04:54:00,
2013-01-14 23:59:00,66.1,60.4,30.16,SSW,203,0.0,1.3,82,0.00,,,0.00,WUHU216HW,2013-01-15 04:59:00,